Terminal Aerodrome Forecast
Issued by NWS

Home | Current Version | Previous Version | Text Only | Print | Product List | Glossary Off
Versions: 1 2 3 4 5 6 7 8 9 10 11 12 13 14 15 16 17 18 19 20 21 22 23 24

000
FTUS43 KGRB 171659 AAB
TAFRHI
TAF AMD
KRHI 171659Z 1717/1812 03005KT P6SM SCT012 OVC035
     FM171800 01005KT P6SM SCT025 OVC060
      TEMPO 1719/1723 BKN025
     FM172300 32004KT P6SM BKN020
     FM180500 VRB03KT P6SM SCT020
     FM180900 26004KT 2SM BR SCT025=

USA.gov is the U.S. government's official web portal to all federal, state and local government web resources and services.